createdAt,value
2023-04-18T00:00:27.859Z,2.40
2023-04-18T00:03:31.054Z,2.42
2023-04-18T00:06:36.078Z,2.72
2023-04-18T00:09:39.077Z,2.88
2023-04-18T00:12:43.036Z,2.85
2023-04-18T00:15:46.428Z,2.37
2023-04-18T00:18:49.438Z,2.20
2023-04-18T00:21:53.180Z,2.58
2023-04-18T00:24:56.109Z,2.60
2023-04-18T00:27:59.111Z,2.63
2023-04-18T00:31:02.185Z,2.87
2023-04-18T00:34:07.921Z,2.75
2023-04-18T00:37:10.891Z,2.58
2023-04-18T00:40:14.169Z,2.72
2023-04-18T00:43:17.334Z,2.50
2023-04-18T00:46:20.387Z,2.73
2023-04-18T00:49:23.409Z,2.65
2023-04-18T00:52:29.490Z,2.63
2023-04-18T00:55:32.471Z,2.70
2023-04-18T00:58:35.982Z,2.67
2023-04-18T01:01:40.345Z,2.80
2023-04-18T01:04:43.946Z,2.70
2023-04-18T01:07:46.908Z,2.60
2023-04-18T01:10:50.405Z,2.70
2023-04-18T01:14:01.617Z,2.75
2023-04-18T01:17:04.718Z,2.40
2023-04-18T01:20:08.534Z,3.20
2023-04-18T01:23:11.665Z,2.83
2023-04-18T01:26:14.603Z,3.63
2023-04-18T01:29:17.573Z,3.42
2023-04-18T01:32:20.846Z,3.10
2023-04-18T01:35:24.015Z,3.28
2023-04-18T01:38:26.973Z,3.30
2023-04-18T01:41:32.713Z,2.95
2023-04-18T01:44:36.079Z,2.70
2023-04-18T01:47:39.211Z,3.13
2023-04-18T01:50:42.184Z,3.20
2023-04-18T01:53:46.877Z,2.75
2023-04-18T01:56:49.831Z,2.90
2023-04-18T01:59:52.885Z,3.22
2023-04-18T02:02:58.175Z,3.00
2023-04-18T02:06:04.798Z,2.90
2023-04-18T02:09:07.728Z,3.13
2023-04-18T02:12:12.612Z,3.17
2023-04-18T02:15:15.665Z,3.45
2023-04-18T02:18:18.677Z,3.13
2023-04-18T02:21:22.951Z,3.35
2023-04-18T02:24:25.947Z,3.95
2023-04-18T02:27:29.004Z,3.58
2023-04-18T02:30:33.436Z,3.80
2023-04-18T02:33:38.412Z,3.63
2023-04-18T02:36:41.380Z,4.03
2023-04-18T02:39:46.527Z,3.60
2023-04-18T02:42:49.478Z,3.92
2023-04-18T02:45:52.520Z,3.63
2023-04-18T02:48:56.124Z,3.33
2023-04-18T02:52:00.879Z,3.92
2023-04-18T02:55:03.960Z,3.92
2023-04-18T02:58:12.760Z,3.45
2023-04-18T03:01:33.929Z,3.17
2023-04-18T03:04:46.500Z,4.17
2023-04-18T03:07:49.721Z,4.00
2023-04-18T03:10:56.196Z,4.32
2023-04-18T03:14:00.639Z,3.65
2023-04-18T03:17:10.448Z,4.22
2023-04-18T03:20:17.752Z,3.67
2023-04-18T03:23:20.742Z,3.50
2023-04-18T03:26:25.296Z,3.40
2023-04-18T03:29:29.742Z,3.63
2023-04-18T03:32:36.438Z,4.30
2023-04-18T03:35:39.821Z,4.30
2023-04-18T03:38:43.430Z,4.63
2023-04-18T03:41:46.421Z,4.35
2023-04-18T03:44:49.743Z,5.50
2023-04-18T03:47:52.980Z,4.68
2023-04-18T03:50:57.659Z,5.30
2023-04-18T03:54:00.864Z,4.20
2023-04-18T03:57:04.058Z,4.00
2023-04-18T04:00:10.444Z,3.53
2023-04-18T04:03:19.474Z,4.20
2023-04-18T04:06:22.879Z,3.70
2023-04-18T04:09:26.378Z,4.30
2023-04-18T04:12:29.796Z,3.97
2023-04-18T04:15:33.528Z,4.50
2023-04-18T04:18:41.596Z,4.63
2023-04-18T04:21:44.648Z,4.90
2023-04-18T04:24:50.603Z,4.18
2023-04-18T04:28:01.540Z,3.88
2023-04-18T04:31:06.877Z,4.10
2023-04-18T04:34:10.942Z,4.43
2023-04-18T04:37:14.390Z,3.90
2023-04-18T04:40:29.428Z,4.07
2023-04-18T04:43:41.354Z,4.70
2023-04-18T04:46:45.612Z,4.60
2023-04-18T04:49:55.133Z,4.18
2023-04-18T04:52:58.123Z,4.33
2023-04-18T04:56:01.193Z,4.13
2023-04-18T04:59:04.296Z,4.40
2023-04-18T05:02:11.982Z,4.25
2023-04-18T05:05:15.121Z,4.68
2023-04-18T05:08:18.152Z,4.13
2023-04-18T05:11:21.138Z,4.32
2023-04-18T05:14:26.018Z,4.47
2023-04-18T05:17:29.512Z,4.50
2023-04-18T05:20:32.846Z,4.18
2023-04-18T05:23:37.185Z,5.07
2023-04-18T05:26:40.421Z,4.60
2023-04-18T05:29:43.437Z,4.40
2023-04-18T05:32:46.566Z,4.60
2023-04-18T05:35:49.610Z,4.95
2023-04-18T05:38:52.642Z,4.50
2023-04-18T05:41:55.617Z,4.78
2023-04-18T05:44:58.608Z,4.90
2023-04-18T05:48:01.667Z,5.90
2023-04-18T05:51:05.954Z,4.20
2023-04-18T05:54:08.989Z,5.30
2023-04-18T05:57:11.958Z,3.92
2023-04-18T06:00:17.257Z,3.95
2023-04-18T06:03:20.353Z,3.95
2023-04-18T06:06:23.919Z,4.45
2023-04-18T06:09:27.318Z,4.10
2023-04-18T06:12:32.669Z,4.40
2023-04-18T06:15:35.843Z,4.78
2023-04-18T06:18:39.163Z,3.88
2023-04-18T06:21:42.938Z,3.70
2023-04-18T06:24:46.012Z,4.00
2023-04-18T06:27:48.992Z,4.45
2023-04-18T06:30:52.109Z,3.45
2023-04-18T06:33:55.129Z,3.63
2023-04-18T06:36:58.198Z,3.20
2023-04-18T06:40:04.374Z,2.90
2023-04-18T06:43:07.518Z,3.33
2023-04-18T06:46:10.542Z,3.50
2023-04-18T06:49:13.571Z,3.00
2023-04-18T06:52:16.521Z,2.85
2023-04-18T06:55:19.580Z,2.60
2023-04-18T06:58:22.556Z,2.63
2023-04-18T07:01:28.122Z,7.10
2023-04-18T07:04:31.208Z,2.85
2023-04-18T07:07:34.411Z,2.72
2023-04-18T07:10:37.504Z,2.40
2023-04-18T07:13:40.706Z,2.40
2023-04-18T07:16:43.833Z,2.60
2023-04-18T07:19:46.882Z,2.20
2023-04-18T07:22:49.868Z,2.55
2023-04-18T07:25:52.972Z,2.10
2023-04-18T07:28:56.184Z,3.00
2023-04-18T07:31:59.695Z,3.35
2023-04-18T07:35:03.443Z,2.30
2023-04-18T07:38:06.660Z,1.95
2023-04-18T07:41:09.634Z,2.20
2023-04-18T07:44:12.758Z,1.60
2023-04-18T07:47:16.069Z,2.30
2023-04-18T07:50:19.143Z,2.08
2023-04-18T07:53:22.154Z,2.40
2023-04-18T07:56:26.129Z,3.03
2023-04-18T07:59:29.994Z,2.40
2023-04-18T08:02:33.159Z,2.17
2023-04-18T08:05:36.369Z,2.47
2023-04-18T08:08:43.795Z,2.80
2023-04-18T08:11:46.826Z,3.23
2023-04-18T08:14:51.428Z,2.90
2023-04-18T08:17:54.885Z,2.20
2023-04-18T08:20:57.841Z,2.28
2023-04-18T08:24:03.864Z,2.30
2023-04-18T08:27:06.923Z,2.20
2023-04-18T08:30:16.214Z,2.17
2023-04-18T08:33:19.675Z,3.33
2023-04-18T08:36:22.684Z,2.72
2023-04-18T08:39:25.777Z,2.60
2023-04-18T08:42:28.809Z,2.20
2023-04-18T08:45:34.506Z,2.40
2023-04-18T08:48:38.124Z,3.00
2023-04-18T08:51:41.687Z,2.88
2023-04-18T08:54:46.797Z,2.60
2023-04-18T08:57:54.175Z,2.30
2023-04-18T09:00:57.364Z,3.00
2023-04-18T09:04:00.525Z,3.00
2023-04-18T09:07:05.281Z,2.60
2023-04-18T09:10:10.168Z,2.67
2023-04-18T09:13:30.038Z,2.17
2023-04-18T09:16:46.978Z,2.08
2023-04-18T09:19:50.547Z,2.35
2023-04-18T09:22:54.402Z,2.10
2023-04-18T09:25:59.113Z,2.25
2023-04-18T09:29:03.282Z,2.47
2023-04-18T09:32:06.440Z,2.10
2023-04-18T09:35:09.649Z,2.15
2023-04-18T09:38:12.936Z,2.00
2023-04-18T09:41:19.914Z,2.08
2023-04-18T09:44:24.499Z,2.10
2023-04-18T09:47:40.084Z,1.95
2023-04-18T09:50:43.648Z,1.90
2023-04-18T09:53:47.933Z,2.20
2023-04-18T09:56:53.568Z,2.30
2023-04-18T10:00:30.405Z,2.00
2023-04-18T10:03:38.180Z,2.05
2023-04-18T10:06:42.183Z,2.00
2023-04-18T10:09:54.538Z,2.08
2023-04-18T10:12:58.388Z,2.58
2023-04-18T10:16:01.927Z,2.80
2023-04-18T10:19:26.711Z,1.88
2023-04-18T10:22:29.809Z,2.05
2023-04-18T10:25:38.792Z,2.55
2023-04-18T10:29:04.009Z,2.45
2023-04-18T10:32:07.444Z,1.80
2023-04-18T10:35:10.606Z,2.00
2023-04-18T10:38:24.207Z,2.88
2023-04-18T10:41:28.552Z,1.70
2023-04-18T10:44:31.615Z,2.72
2023-04-18T11:07:11.532Z,2.35
2023-04-18T11:10:21.436Z,2.20
2023-04-18T11:13:24.630Z,2.28
2023-04-18T11:16:31.829Z,2.30
2023-04-18T11:19:34.914Z,1.88
2023-04-18T11:22:48.452Z,2.30
2023-04-18T11:25:53.635Z,2.20
2023-04-18T11:29:00.004Z,2.30
2023-04-18T11:32:05.868Z,2.80
2023-04-18T11:35:12.818Z,2.45
2023-04-18T11:38:16.036Z,2.63
2023-04-18T11:41:19.271Z,2.73
2023-04-18T11:44:25.879Z,3.22
2023-04-18T11:47:34.051Z,3.20
2023-04-18T11:50:37.773Z,2.40
2023-04-18T11:53:41.135Z,2.55
2023-04-18T11:56:50.166Z,2.30
2023-04-18T11:59:59.915Z,2.97
2023-04-18T12:03:04.815Z,3.38
2023-04-18T12:06:07.987Z,2.08
2023-04-18T12:09:15.205Z,2.17
2023-04-18T12:12:19.803Z,2.57
2023-04-18T12:15:28.232Z,2.33
2023-04-18T12:18:31.572Z,2.65
2023-04-18T12:21:34.615Z,4.22
2023-04-18T12:24:38.037Z,2.00
2023-04-18T12:27:57.998Z,2.50
2023-04-18T12:31:01.386Z,2.13
2023-04-18T12:34:04.390Z,2.30
2023-04-18T12:37:07.354Z,4.22
2023-04-18T12:40:11.090Z,3.75
2023-04-18T12:43:14.063Z,2.73
2023-04-18T12:46:17.144Z,4.18
2023-04-18T12:49:20.105Z,4.15
2023-04-18T12:52:23.118Z,4.50
2023-04-18T12:55:26.463Z,4.80
2023-04-18T12:58:29.372Z,4.20
2023-04-18T13:01:32.420Z,4.38
2023-04-18T13:04:35.532Z,3.42
2023-04-18T13:07:40.516Z,3.58
2023-04-18T13:10:45.983Z,4.28
2023-04-18T13:13:48.979Z,3.23
2023-04-18T13:16:52.049Z,3.78
2023-04-18T13:19:55.044Z,3.40
2023-04-18T13:22:58.073Z,3.45
2023-04-18T13:26:01.185Z,2.88
2023-04-18T13:29:04.804Z,2.80
2023-04-18T13:32:08.288Z,2.80
2023-04-18T13:35:11.888Z,3.08
2023-04-18T13:38:15.491Z,2.80
2023-04-18T13:41:18.419Z,3.30
2023-04-18T13:44:21.500Z,3.77
2023-04-18T13:47:24.507Z,3.25
2023-04-18T13:50:27.564Z,2.97
2023-04-18T13:53:31.243Z,3.30
2023-04-18T13:56:34.420Z,2.70
2023-04-18T13:59:37.738Z,3.67
2023-04-18T14:02:41.483Z,2.97
2023-04-18T14:05:44.692Z,3.08
2023-04-18T14:08:48.928Z,3.20
2023-04-18T14:11:51.857Z,2.92
2023-04-18T14:14:54.807Z,3.30
2023-04-18T14:17:57.853Z,3.45
2023-04-18T14:21:00.864Z,4.15
2023-04-18T14:24:05.214Z,3.08
2023-04-18T14:27:08.160Z,3.47
2023-04-18T14:30:12.017Z,3.27
2023-04-18T14:33:15.872Z,2.90
2023-04-18T14:36:28.706Z,2.92
2023-04-18T14:39:31.836Z,4.30
2023-04-18T14:42:34.929Z,3.58
2023-04-18T14:45:38.061Z,3.60
2023-04-18T14:48:41.139Z,3.65
2023-04-18T14:51:44.582Z,3.50
2023-04-18T14:54:47.513Z,3.50
2023-04-18T14:57:50.626Z,3.78
2023-04-18T15:00:53.753Z,3.50
2023-04-18T15:03:56.943Z,2.80
2023-04-18T15:07:00.153Z,3.33
2023-04-18T15:10:03.837Z,3.00
2023-04-18T15:13:06.849Z,2.83
2023-04-18T15:16:09.934Z,3.60
2023-04-18T15:19:12.894Z,3.08
2023-04-18T15:22:15.931Z,2.97
2023-04-18T15:25:19.050Z,2.80
2023-04-18T15:28:22.133Z,2.83
2023-04-18T15:31:25.279Z,2.57
2023-04-18T15:34:28.380Z,3.03
2023-04-18T15:37:31.421Z,3.20
2023-04-18T15:40:36.251Z,2.53
2023-04-18T15:43:42.117Z,2.65
2023-04-18T15:46:45.274Z,3.43
2023-04-18T15:49:48.274Z,2.88
2023-04-18T15:52:51.200Z,2.80
2023-04-18T15:55:54.259Z,3.33
2023-04-18T15:58:57.567Z,2.45
2023-04-18T16:02:00.731Z,2.97
2023-04-18T16:05:04.643Z,2.85
2023-04-18T16:08:09.031Z,2.78
2023-04-18T16:11:12.016Z,3.13
2023-04-18T16:14:15.161Z,3.55
2023-04-18T16:17:18.315Z,3.10
2023-04-18T16:20:21.396Z,3.40
2023-04-18T16:23:24.981Z,2.63
2023-04-18T16:26:28.954Z,2.90
2023-04-18T16:29:31.957Z,3.10
2023-04-18T16:32:35.022Z,3.10
2023-04-18T16:35:38.689Z,3.15
2023-04-18T16:38:41.619Z,3.08
2023-04-18T16:41:44.668Z,4.25
2023-04-18T16:44:48.211Z,3.28
2023-04-18T16:47:51.155Z,3.10
2023-04-18T16:50:54.180Z,2.60
2023-04-18T16:53:57.155Z,2.65
2023-04-18T16:57:00.911Z,2.83
2023-04-18T17:00:05.092Z,2.60
2023-04-18T17:03:09.951Z,2.60
2023-04-18T17:06:13.117Z,2.42
2023-04-18T17:09:16.473Z,2.92
2023-04-18T17:12:19.665Z,3.17
2023-04-18T17:15:22.750Z,2.60
2023-04-18T17:18:25.708Z,3.70
2023-04-18T17:21:28.742Z,4.10
2023-04-18T17:24:31.646Z,4.10
2023-04-18T17:27:34.643Z,4.70
2023-04-18T17:30:41.649Z,5.43
2023-04-18T17:33:47.660Z,5.77
2023-04-18T17:36:50.965Z,6.35
2023-04-18T17:39:58.841Z,7.35
2023-04-18T17:43:01.761Z,9.90
2023-04-18T17:46:04.896Z,12.48
2023-04-18T17:49:07.881Z,10.93
2023-04-18T17:52:15.621Z,9.98
2023-04-18T17:55:18.790Z,11.20
2023-04-18T17:58:21.853Z,9.68
2023-04-18T18:01:26.267Z,9.40
2023-04-18T18:04:31.993Z,8.83
2023-04-18T18:07:37.415Z,7.80
2023-04-18T18:10:41.182Z,5.25
2023-04-18T18:13:44.405Z,4.13
2023-04-18T18:16:47.419Z,4.00
2023-04-18T18:19:50.463Z,3.83
2023-04-18T18:22:54.455Z,5.50
2023-04-18T18:25:57.412Z,6.55
2023-04-18T18:29:01.317Z,8.43
2023-04-18T18:32:04.305Z,10.45
2023-04-18T18:35:07.508Z,11.07
2023-04-18T18:38:10.528Z,11.60
2023-04-18T18:41:14.629Z,7.88
2023-04-18T18:44:20.612Z,6.70
2023-04-18T18:47:23.628Z,5.70
2023-04-18T18:50:26.633Z,4.20
2023-04-18T18:53:29.701Z,8.05
2023-04-18T18:56:32.790Z,10.70
2023-04-18T18:59:36.030Z,7.50
2023-04-18T19:02:39.799Z,4.68
2023-04-18T19:05:42.911Z,3.90
2023-04-18T19:08:45.851Z,3.60
2023-04-18T19:11:48.835Z,3.95
2023-04-18T19:14:51.798Z,4.22
2023-04-18T19:17:55.077Z,3.90
2023-04-18T19:20:58.152Z,3.67
2023-04-18T19:24:01.102Z,3.95
2023-04-18T19:27:04.062Z,3.60
2023-04-18T19:30:07.833Z,3.70
2023-04-18T19:33:10.855Z,4.57
2023-04-18T19:36:14.026Z,4.97
2023-04-18T19:39:18.183Z,4.60
2023-04-18T19:42:21.189Z,5.00
2023-04-18T19:45:26.925Z,4.32
2023-04-18T19:48:29.941Z,4.60
2023-04-18T19:51:32.912Z,4.77
2023-04-18T19:54:36.305Z,4.55
2023-04-18T19:57:40.077Z,4.78
2023-04-18T20:00:43.024Z,4.97
2023-04-18T20:03:47.168Z,4.90
2023-04-18T20:06:50.388Z,5.53
2023-04-18T20:09:53.513Z,4.05
2023-04-18T20:12:56.542Z,3.53
2023-04-18T20:15:59.596Z,3.45
2023-04-18T20:19:03.478Z,3.00
2023-04-18T20:22:06.725Z,3.40
2023-04-18T20:25:09.858Z,3.60
2023-04-18T20:28:12.888Z,3.80
2023-04-18T20:31:15.858Z,3.22
2023-04-18T20:34:19.117Z,2.83
2023-04-18T20:37:22.414Z,4.80
2023-04-18T20:40:25.665Z,4.75
2023-04-18T20:43:28.774Z,4.70
2023-04-18T20:46:34.858Z,8.80
2023-04-18T20:49:38.346Z,6.45
2023-04-18T20:52:42.870Z,5.10
2023-04-18T20:55:46.112Z,4.15
2023-04-18T20:58:49.085Z,4.20
2023-04-18T21:01:52.118Z,3.72
2023-04-18T21:04:55.160Z,3.40
2023-04-18T21:07:59.720Z,3.50
2023-04-18T21:11:02.674Z,3.17
2023-04-18T21:14:06.779Z,3.30
2023-04-18T21:17:10.541Z,3.42
2023-04-18T21:20:13.498Z,4.03
2023-04-18T21:23:16.473Z,3.20
2023-04-18T21:26:19.434Z,3.17
2023-04-18T21:29:22.403Z,3.78
2023-04-18T21:32:25.488Z,3.53
2023-04-18T21:35:30.023Z,3.10
2023-04-18T21:38:32.988Z,3.07
2023-04-18T21:41:35.939Z,3.05
2023-04-18T21:44:38.870Z,2.92
2023-04-18T21:47:41.881Z,2.90
2023-04-18T21:50:44.911Z,3.00
2023-04-18T21:53:47.880Z,3.23
2023-04-18T21:56:50.858Z,2.65
2023-04-18T21:59:54.578Z,2.97
2023-04-18T22:02:57.682Z,2.75
2023-04-18T22:06:01.534Z,3.38
2023-04-18T22:09:06.098Z,3.00
2023-04-18T22:12:09.208Z,3.10
2023-04-18T22:15:12.588Z,3.22
2023-04-18T22:18:15.508Z,2.85
2023-04-18T22:21:18.516Z,3.17
2023-04-18T22:24:22.069Z,3.20
2023-04-18T22:27:25.064Z,2.90
2023-04-18T22:30:28.157Z,3.28
2023-04-18T22:33:31.107Z,3.40
2023-04-18T22:36:34.006Z,2.92
2023-04-18T22:39:36.986Z,3.07
2023-04-18T22:42:40.049Z,3.38
2023-04-18T22:45:43.031Z,3.47
2023-04-18T22:48:46.243Z,3.15
2023-04-18T22:51:49.670Z,3.25
2023-04-18T22:54:52.934Z,3.30
2023-04-18T22:57:56.013Z,3.15
2023-04-18T23:00:59.331Z,3.00
2023-04-18T23:04:02.445Z,2.72
2023-04-18T23:07:05.496Z,2.88
2023-04-18T23:10:09.219Z,2.60
2023-04-18T23:13:13.203Z,3.17
2023-04-18T23:16:16.265Z,3.47
2023-04-18T23:19:19.357Z,3.42
2023-04-18T23:22:24.156Z,3.42
2023-04-18T23:25:27.124Z,3.57
2023-04-18T23:28:30.120Z,2.88
2023-04-18T23:31:33.168Z,3.30
2023-04-18T23:34:36.238Z,3.00
2023-04-18T23:37:39.257Z,3.30
2023-04-18T23:40:42.217Z,2.60
2023-04-18T23:43:45.287Z,3.85
2023-04-18T23:46:48.524Z,3.45
2023-04-18T23:49:51.494Z,3.35
2023-04-18T23:52:54.446Z,3.78
2023-04-18T23:55:57.403Z,3.07
2023-04-18T23:59:00.314Z,3.10
